Time;durP1;ratioP1;P1;durP2;ratioP2;P2;SDS_P1;SDS_P2;PMS_P1;PMS_P2;Temp;Humidity;BMP_temperature;BMP_pressure;BME280_temperature;BME280_humidity;BME280_pressure;Samples;Min_cycle;Max_cycle;Signal;HPM_P1;HPM_P2
2021/12/13 00:01:15;;;;;;;21.05;8.25;;;;;;;8.69;59.07;102207.09;4995011;28;20037;-72
2021/12/13 00:03:46;;;;;;;17.38;7.03;;;;;;;8.75;58.66;102200.09;4955947;28;20053;-72
2021/12/13 00:06:17;;;;;;;18.27;7.20;;;;;;;8.79;58.82;102200.06;4988832;28;20034;-72
2021/12/13 00:08:50;;;;;;;20.35;7.45;;;;;;;8.25;60.06;102204.06;4982117;28;20038;-72
2021/12/13 00:11:22;;;;;;;15.57;6.78;;;;;;;8.72;58.89;102207.09;4999341;28;20041;-72
2021/12/13 00:13:56;;;;;;;20.52;8.60;;;;;;;8.82;58.70;102205.25;4979891;28;20041;-71
2021/12/13 00:16:31;;;;;;;16.25;7.90;;;;;;;8.99;57.72;102205.91;5000777;28;20034;-71
2021/12/13 00:19:00;;;;;;;16.13;8.55;;;;;;;9.01;57.93;102208.47;4994092;28;20042;-71
2021/12/13 00:21:41;;;;;;;14.70;7.43;;;;;;;8.91;58.17;102206.00;4982515;28;20046;-71
2021/12/13 00:24:19;;;;;;;17.40;8.32;;;;;;;8.99;58.19;102205.91;4997281;28;20143;-73
2021/12/13 00:26:48;;;;;;;17.27;7.88;;;;;;;9.09;57.51;102206.66;4984332;28;20682;-71
2021/12/13 00:29:19;;;;;;;15.93;7.00;;;;;;;9.10;57.73;102208.41;4970288;28;20177;-71
2021/12/13 00:32:10;;;;;;;16.13;7.70;;;;;;;8.92;57.83;102212.09;4995823;28;20026;-71
2021/12/13 00:34:41;;;;;;;13.93;7.47;;;;;;;8.87;58.70;102206.91;4971116;28;20117;-71
2021/12/13 00:37:11;;;;;;;17.83;7.67;;;;;;;8.89;58.13;102210.34;4996031;28;20042;-72
2021/12/13 00:40:12;;;;;;;15.63;7.22;;;;;;;9.06;57.83;102214.53;4987416;28;20030;-72
2021/12/13 00:42:43;;;;;;;16.75;7.22;;;;;;;8.91;58.14;102212.97;4991924;28;20085;-72
2021/12/13 00:45:14;;;;;;;15.43;8.53;;;;;;;9.01;57.82;102217.19;4967716;28;20119;-72
2021/12/13 00:47:42;;;;;;;15.10;8.30;;;;;;;9.08;57.82;102223.19;4982271;28;20698;-72
2021/12/13 00:50:18;;;;;;;14.32;7.95;;;;;;;9.00;57.94;102219.81;4987990;28;20328;-72
2021/12/13 00:52:46;;;;;;;17.60;6.97;;;;;;;8.94;57.88;102213.78;4997523;28;20380;-73
2021/12/13 00:55:15;;;;;;;14.35;8.00;;;;;;;8.80;58.25;102225.25;5000783;28;20026;-72
2021/12/13 00:57:47;;;;;;;16.23;7.60;;;;;;;8.74;59.06;102231.41;4997523;28;20501;-72
2021/12/13 01:00:15;;;;;;;19.40;8.25;;;;;;;8.73;58.94;102219.25;4996851;28;20037;-72
2021/12/13 01:02:47;;;;;;;14.88;6.63;;;;;;;8.32;60.27;102223.09;4989649;28;20057;-71
2021/12/13 01:05:24;;;;;;;19.23;8.30;;;;;;;8.83;58.75;102226.09;4979702;28;20060;-72
2021/12/13 01:08:12;;;;;;;18.00;9.23;;;;;;;8.71;59.08;102228.81;4970314;28;20125;-72
2021/12/13 01:10:53;;;;;;;19.92;8.45;;;;;;;8.77;58.99;102226.16;4980337;28;20030;-71
2021/12/13 01:13:31;;;;;;;19.55;9.43;;;;;;;8.72;59.11;102226.19;4984060;28;20038;-72
2021/12/13 01:16:17;;;;;;;18.80;9.77;;;;;;;8.51;59.94;102232.44;4970471;28;20637;-72
2021/12/13 01:19:26;;;;;;;22.27;10.25;;;;;;;8.90;58.65;102232.97;4986072;28;20042;-72
2021/12/13 01:22:13;;;;;;;17.13;8.25;;;;;;;8.68;59.47;102234.91;4974440;28;20137;-72
2021/12/13 01:27:36;;;;;;;18.75;9.13;;;;;;;8.68;59.34;102242.72;4996102;28;20034;-72
2021/12/13 01:30:05;;;;;;;15.85;8.55;;;;;;;8.35;60.73;102242.16;4977097;28;20045;-72
2021/12/13 01:32:37;;;;;;;18.35;7.78;;;;;;;8.59;59.73;102244.56;4983825;28;20049;-72
2021/12/13 01:35:05;;;;;;;20.75;9.25;;;;;;;8.91;58.50;102245.09;4997161;28;20113;-74
2021/12/13 01:37:32;;;;;;;16.98;8.00;;;;;;;9.06;58.24;102244.06;4978051;28;20029;-72
2021/12/13 01:40:08;;;;;;;22.60;11.07;;;;;;;9.03;57.93;102245.84;4982521;28;20061;-72
2021/12/13 01:42:34;;;;;;;16.05;8.20;;;;;;;8.82;58.64;102244.34;4996444;28;20038;-72
2021/12/13 01:45:11;;;;;;;19.38;8.82;;;;;;;8.37;60.14;102247.34;4965566;28;20041;-72
2021/12/13 01:47:40;;;;;;;17.48;8.57;;;;;;;8.66;59.57;102241.88;4960611;28;20042;-72
2021/12/13 01:50:28;;;;;;;16.40;8.40;;;;;;;8.54;59.49;102244.59;4996201;28;20073;-73
2021/12/13 01:52:55;;;;;;;21.08;9.00;;;;;;;8.93;58.26;102250.31;4969337;28;20160;-72
2021/12/13 01:55:31;;;;;;;16.98;7.65;;;;;;;8.84;58.73;102248.66;4998299;28;20046;-72
2021/12/13 02:01:11;;;;;;;18.63;9.18;;;;;;;8.94;58.32;102254.63;4979416;28;20049;-72
2021/12/13 02:03:39;;;;;;;18.00;8.73;;;;;;;8.94;58.26;102250.31;4984421;28;20037;-72
2021/12/13 02:06:04;;;;;;;22.75;8.57;;;;;;;8.81;58.59;102250.44;4981452;28;20066;-73
2021/12/13 02:08:31;;;;;;;18.60;9.15;;;;;;;8.66;59.10;102254.03;4994012;28;20053;-73
2021/12/13 02:10:57;;;;;;;17.05;8.57;;;;;;;8.31;60.52;102252.63;4979489;28;20057;-72
2021/12/13 02:13:33;;;;;;;18.23;7.72;;;;;;;8.40;60.13;102251.66;4996427;28;20057;-72
2021/12/13 02:18:51;;;;;;;18.90;9.60;;;;;;;8.92;58.55;102261.63;4982639;28;20053;-72
2021/12/13 02:21:29;;;;;;;18.53;9.37;;;;;;;8.93;58.14;102259.00;4994407;28;20038;-72
2021/12/13 02:24:11;;;;;;;14.02;6.60;;;;;;;8.71;58.80;102263.56;4983094;28;20037;-72
2021/12/13 02:26:43;;;;;;;13.88;6.65;;;;;;;8.64;58.88;102261.00;4991217;28;20034;-73
2021/12/13 02:29:23;;;;;;;16.50;7.50;;;;;;;8.78;58.81;102259.16;4993920;28;20022;-73
2021/12/13 02:31:50;;;;;;;14.88;7.05;;;;;;;8.78;58.83;102253.94;4992345;28;20026;-72
2021/12/13 02:34:19;;;;;;;13.63;5.90;;;;;;;8.98;58.22;102257.22;4985565;28;20034;-73
2021/12/13 02:36:49;;;;;;;11.93;5.65;;;;;;;8.46;59.85;102257.69;4992426;28;20246;-73
2021/12/13 02:39:20;;;;;;;11.98;6.10;;;;;;;8.85;58.43;102250.41;4981258;28;20034;-72
2021/12/13 02:41:47;;;;;;;15.10;6.20;;;;;;;8.22;60.35;102258.75;4994254;28;20038;-72
2021/12/13 02:44:30;;;;;;;12.10;6.43;;;;;;;8.50;59.77;102262.00;4978085;28;20044;-72
2021/12/13 02:46:59;;;;;;;9.13;5.30;;;;;;;8.75;58.95;102260.03;4995069;28;20045;-73
2021/12/13 02:49:25;;;;;;;12.93;5.97;;;;;;;8.51;60.07;102255.91;4998350;28;20049;-72
2021/12/13 02:51:56;;;;;;;13.02;5.72;;;;;;;8.72;59.16;102260.09;4984883;28;20026;-73
2021/12/13 02:54:36;;;;;;;11.23;4.95;;;;;;;8.92;58.16;102257.28;4977621;28;20081;-72
2021/12/13 02:57:22;;;;;;;12.80;5.65;;;;;;;8.81;58.29;102261.75;4983715;28;20134;-72
2021/12/13 02:59:55;;;;;;;11.63;5.15;;;;;;;8.61;58.81;102261.06;4994973;28;20113;-73
2021/12/13 03:02:40;;;;;;;13.60;7.05;;;;;;;8.72;58.35;102262.69;4975179;28;20046;-72
2021/12/13 03:05:12;;;;;;;14.45;6.85;;;;;;;8.70;58.83;102264.41;4985479;28;20423;-72
2021/12/13 03:07:42;;;;;;;12.85;6.28;;;;;;;8.70;58.76;102271.38;4969283;28;20038;-73
2021/12/13 03:10:27;;;;;;;11.88;6.28;;;;;;;8.85;58.32;102271.25;4993886;28;20112;-72
2021/12/13 03:12:53;;;;;;;12.80;6.30;;;;;;;8.82;58.77;102266.06;4967965;28;20049;-73
2021/12/13 03:15:25;;;;;;;11.38;6.50;;;;;;;8.79;58.47;102271.31;5001208;28;20031;-73
2021/12/13 03:18:10;;;;;;;12.95;6.72;;;;;;;8.83;58.28;102273.03;4994451;28;20459;-72
2021/12/13 03:20:57;;;;;;;10.85;6.10;;;;;;;8.76;58.63;102277.44;4979658;28;20069;-72
2021/12/13 03:23:26;;;;;;;12.30;5.68;;;;;;;8.77;58.74;102276.53;4999019;28;20049;-73
2021/12/13 03:26:23;;;;;;;12.73;6.80;;;;;;;8.59;59.02;102278.44;4985350;28;22140;-73
2021/12/13 03:29:04;;;;;;;13.85;6.85;;;;;;;8.79;58.76;102279.16;4988256;28;20111;-72
2021/12/13 03:31:44;;;;;;;12.52;5.38;;;;;;;8.70;59.00;102285.28;4987939;28;20088;-72
2021/12/13 03:34:14;;;;;;;8.95;5.50;;;;;;;8.73;59.03;102289.63;4989022;28;20072;-73
2021/12/13 03:36:42;;;;;;;8.50;5.45;;;;;;;8.60;59.37;102293.19;4982945;28;20042;-72
2021/12/13 03:39:11;;;;;;;10.63;4.68;;;;;;;8.91;58.21;102292.03;4989831;28;20040;-73
2021/12/13 03:41:41;;;;;;;8.73;4.57;;;;;;;8.77;58.39;102289.56;4997806;28;20077;-74
2021/12/13 03:44:11;;;;;;;8.40;5.03;;;;;;;8.76;58.34;102286.97;4988987;28;20018;-73
2021/12/13 03:46:39;;;;;;;8.52;4.05;;;;;;;8.04;60.94;102290.16;4987261;28;20061;-73
2021/12/13 03:49:08;;;;;;;9.07;4.18;;;;;;;8.39;60.44;102282.06;4998274;28;20134;-73
2021/12/13 03:51:37;;;;;;;9.80;5.25;;;;;;;8.30;60.57;102292.56;4972059;28;20025;-72
2021/12/13 03:54:06;;;;;;;10.23;4.57;;;;;;;8.53;59.34;102288.03;4997212;28;20029;-73
2021/12/13 03:56:36;;;;;;;9.73;5.45;;;;;;;8.79;59.13;102291.31;4998682;28;20579;-74
2021/12/13 03:59:12;;;;;;;12.32;5.45;;;;;;;8.83;58.73;102278.25;4995434;28;20045;-73
2021/12/13 04:01:58;;;;;;;9.45;5.40;;;;;;;8.49;60.01;102278.50;4981299;28;20085;-73
2021/12/13 04:04:31;;;;;;;12.23;6.13;;;;;;;8.28;60.15;102278.69;4997580;28;20117;-72
2021/12/13 04:07:05;;;;;;;12.23;6.43;;;;;;;8.79;58.87;102281.75;4969888;28;20551;-72
2021/12/13 04:09:31;;;;;;;12.15;6.57;;;;;;;8.85;58.62;102280.81;4986942;28;20065;-73
2021/12/13 04:12:00;;;;;;;10.77;6.30;;;;;;;8.45;59.96;102282.03;4979032;28;20107;-72
2021/12/13 04:14:39;;;;;;;11.90;6.63;;;;;;;8.76;58.94;102287.88;4994092;28;20037;-72
2021/12/13 04:17:23;;;;;;;13.38;7.05;;;;;;;8.73;58.87;102287.88;4992257;28;20039;-73
2021/12/13 04:20:01;;;;;;;15.68;7.95;;;;;;;8.69;59.00;102280.91;4996824;28;20042;-72
2021/12/13 04:22:35;;;;;;;13.23;7.10;;;;;;;8.81;58.69;102285.22;4980380;28;20519;-72
2021/12/13 04:25:07;;;;;;;13.75;7.07;;;;;;;8.80;58.62;102287.81;4979076;28;20034;-73
2021/12/13 04:27:35;;;;;;;16.50;8.43;;;;;;;8.81;58.66;102293.03;4994850;28;20230;-72
2021/12/13 04:30:13;;;;;;;16.00;8.27;;;;;;;8.77;59.11;102293.94;4991826;28;20040;-72
2021/12/13 04:32:45;;;;;;;14.38;8.25;;;;;;;8.52;59.71;102298.47;4983094;28;20093;-73
2021/12/13 04:35:13;;;;;;;15.98;8.40;;;;;;;8.82;58.92;102299.97;4993046;28;20042;-72
2021/12/13 04:37:44;;;;;;;19.45;8.40;;;;;;;8.55;59.17;102299.31;4981565;28;20042;-72
2021/12/13 04:40:23;;;;;;;18.83;8.20;;;;;;;8.19;60.67;102300.47;4985902;28;20041;-72
2021/12/13 04:43:13;;;;;;;15.88;9.20;;;;;;;8.77;58.97;102302.63;4982161;28;20046;-72
2021/12/13 04:45:52;;;;;;;16.30;8.73;;;;;;;8.63;59.44;102300.97;4996611;28;20502;-72
2021/12/13 04:48:23;;;;;;;18.98;9.43;;;;;;;8.37;59.69;102304.66;4996584;28;20050;-72
2021/12/13 04:51:04;;;;;;;21.98;10.93;;;;;;;8.47;59.68;102308.06;4982391;28;20029;-72
2021/12/13 04:53:40;;;;;;;21.65;10.30;;;;;;;7.90;61.65;102316.28;4985733;28;20149;-72
2021/12/13 04:56:10;;;;;;;28.00;10.35;;;;;;;8.45;60.19;102312.41;4986167;28;20069;-72
2021/12/13 04:58:38;;;;;;;22.00;9.18;;;;;;;8.45;59.97;102318.50;4992528;28;20107;-72
2021/12/13 05:01:07;;;;;;;23.30;11.00;;;;;;;8.54;59.68;102310.63;4987929;28;20125;-72
2021/12/13 05:03:37;;;;;;;25.02;10.77;;;;;;;8.55;59.76;102322.75;4970360;28;20507;-72
2021/12/13 05:06:14;;;;;;;21.08;9.95;;;;;;;8.64;59.38;102305.31;4996969;28;20087;-72
2021/12/13 05:08:43;;;;;;;28.30;11.73;;;;;;;8.30;60.11;102308.22;4977350;28;20088;-72
2021/12/13 05:11:09;;;;;;;26.67;12.32;;;;;;;8.14;60.82;102310.06;4992641;28;20029;-71
2021/12/13 05:13:38;;;;;;;25.70;10.63;;;;;;;8.55;59.40;102304.50;4991790;28;20282;-72
2021/12/13 05:16:12;;;;;;;31.15;11.68;;;;;;;8.69;59.06;102303.53;4984274;28;20036;-72
2021/12/13 05:18:52;;;;;;;22.75;10.35;;;;;;;8.77;58.34;102314.78;4976227;28;20095;-72
2021/12/13 05:21:27;;;;;;;24.58;10.95;;;;;;;8.43;59.37;102320.25;4973680;28;20999;-72
2021/12/13 05:23:59;;;;;;;28.70;11.73;;;;;;;8.46;59.73;102321.97;4986255;28;20033;-72
2021/12/13 05:26:33;;;;;;;;;;;;;;;8.62;59.24;102317.50;4980105;28;20112;-73
2021/12/13 05:29:01;;;;;;;25.23;12.60;;;;;;;8.41;58.98;102327.22;4998806;28;19980;-72
2021/12/13 05:31:28;;;;;;;24.65;12.70;;;;;;;8.24;59.97;102323.88;4983973;28;20034;-72
2021/12/13 05:33:59;;;;;;;28.40;11.73;;;;;;;8.43;59.01;102328.09;4966414;28;20041;-71
2021/12/13 05:36:29;;;;;;;28.58;12.40;;;;;;;8.28;59.67;102330.78;4994573;28;20040;-72
2021/12/13 05:39:11;;;;;;;32.15;11.88;;;;;;;8.47;59.07;102327.19;4977928;28;20531;-72
2021/12/13 05:41:38;;;;;;;29.60;10.90;;;;;;;8.29;59.51;102327.31;4982212;28;20034;-73
2021/12/13 05:44:11;;;;;;;30.13;11.95;;;;;;;8.19;59.69;102323.06;4968350;28;20069;-73
2021/12/13 05:46:41;;;;;;;22.98;10.38;;;;;;;8.03;60.19;102328.34;4986708;28;20025;-73
2021/12/13 05:49:17;;;;;;;29.30;11.75;;;;;;;8.15;59.82;102336.06;4973842;28;20033;-73
2021/12/13 05:51:47;;;;;;;29.88;12.15;;;;;;;8.15;59.64;102333.47;4990752;28;20037;-73
2021/12/13 05:54:27;;;;;;;23.25;11.15;;;;;;;8.42;58.98;102338.50;4985330;28;20032;-72
2021/12/13 05:56:59;;;;;;;25.27;11.90;;;;;;;8.34;58.95;102338.56;4985564;28;20061;-73
2021/12/13 05:59:29;;;;;;;28.85;11.52;;;;;;;8.56;58.22;102337.53;4968664;28;20365;-72
2021/12/13 06:02:03;;;;;;;25.00;12.02;;;;;;;8.28;58.92;102341.22;4977858;28;20065;-73
2021/12/13 06:04:35;;;;;;;22.95;11.52;;;;;;;7.82;60.51;102351.91;4997831;28;20376;-73
2021/12/13 06:07:10;;;;;;;25.48;11.45;;;;;;;8.18;59.35;102339.53;4976791;28;20053;-71
2021/12/13 06:09:45;;;;;;;25.90;11.98;;;;;;;8.17;59.19;102343.03;4967470;28;20107;-71
2021/12/13 06:12:24;;;;;;;21.77;12.18;;;;;;;8.37;58.71;102351.56;4992263;28;20065;-72
2021/12/13 06:14:51;;;;;;;26.45;11.98;;;;;;;8.10;59.68;102348.28;4993755;28;20034;-72
2021/12/13 06:17:21;;;;;;;26.15;10.98;;;;;;;7.96;59.45;102357.91;4966844;28;20038;-72
2021/12/13 06:20:08;;;;;;;26.20;10.13;;;;;;;8.15;59.41;102367.31;4985991;28;20564;-72
2021/12/13 06:22:34;;;;;;;22.92;10.95;;;;;;;8.09;59.58;102366.50;4965760;28;20054;-72
2021/12/13 06:25:05;;;;;;;18.70;10.60;;;;;;;7.95;59.88;102370.03;4997932;28;20113;-72
2021/12/13 06:27:52;;;;;;;22.52;9.40;;;;;;;8.25;58.89;102368.16;4982682;28;20050;-72
2021/12/13 06:30:32;;;;;;;20.75;10.55;;;;;;;8.08;59.03;102365.63;4980362;28;20476;-72
2021/12/13 06:32:59;;;;;;;19.10;8.07;;;;;;;8.20;58.92;102371.66;4968119;28;20504;-72
2021/12/13 06:35:42;;;;;;;28.40;9.40;;;;;;;8.10;59.01;102376.91;4997232;28;20054;-72
2021/12/13 06:38:46;;;;;;;21.70;8.57;;;;;;;8.19;58.44;102370.78;4966909;28;20045;-72
2021/12/13 06:41:31;;;;;;;13.15;6.85;;;;;;;8.28;58.21;102369.88;4970098;28;20057;-73
2021/12/13 06:44:01;;;;;;;26.67;8.82;;;;;;;7.60;60.12;102372.81;4938354;28;20044;-72
2021/12/13 06:46:26;;;;;;;28.67;7.43;;;;;;;7.97;59.65;102375.25;4976436;28;20057;-72
2021/12/13 06:49:17;;;;;;;17.73;6.63;;;;;;;8.32;57.98;102379.41;4978890;28;20815;-72
2021/12/13 06:52:08;;;;;;;19.80;7.82;;;;;;;8.26;58.36;102387.25;4983881;28;20049;-72
2021/12/13 06:54:46;;;;;;;19.20;7.20;;;;;;;8.18;58.17;102381.22;5002983;28;20022;-73
2021/12/13 06:57:23;;;;;;;26.48;7.20;;;;;;;8.01;58.75;102381.31;4986841;28;20441;-72
2021/12/13 07:00:10;;;;;;;14.82;7.07;;;;;;;8.10;58.57;102386.47;4989730;28;20507;-72
2021/12/13 07:02:46;;;;;;;12.88;6.43;;;;;;;8.22;58.16;102390.75;4970699;28;20503;-72
2021/12/13 07:05:23;;;;;;;23.70;5.97;;;;;;;8.08;58.31;102390.81;4997227;28;20121;-72
2021/12/13 07:07:51;;;;;;;17.52;7.72;;;;;;;7.96;59.15;102389.16;4975925;28;20107;-71
2021/12/13 07:10:20;;;;;;;14.05;6.43;;;;;;;8.26;58.03;102395.06;5000438;28;21181;-72
2021/12/13 07:12:56;;;;;;;16.08;6.45;;;;;;;8.24;58.14;102397.66;5005093;28;20084;-71
2021/12/13 07:15:32;;;;;;;17.35;6.28;;;;;;;8.03;58.31;102403.88;4988132;28;20034;-71
2021/12/13 07:18:07;;;;;;;13.02;5.72;;;;;;;8.12;58.33;102403.81;4972815;28;21049;-72
2021/12/13 07:20:50;;;;;;;11.98;5.57;;;;;;;8.12;58.27;102408.16;4974199;28;20038;-71
2021/12/13 07:23:17;;;;;;;14.82;5.65;;;;;;;8.37;57.43;102408.88;4990272;28;20141;-72
2021/12/13 07:25:44;;;;;;;12.77;5.40;;;;;;;7.75;59.41;102413.53;4985886;28;20112;-71
2021/12/13 07:28:11;;;;;;;13.20;4.88;;;;;;;8.14;58.26;102411.63;4994464;28;20919;-72
2021/12/13 07:30:38;;;;;;;12.98;5.50;;;;;;;8.31;57.46;102416.72;4979615;28;20034;-72
2021/12/13 07:33:07;;;;;;;10.25;5.10;;;;;;;8.17;57.69;102415.97;4997062;28;20058;-71
2021/12/13 07:35:40;;;;;;;9.23;5.63;;;;;;;7.98;58.36;102417.75;4994386;28;20037;-71
2021/12/13 07:38:16;;;;;;;10.80;4.70;;;;;;;8.19;57.92;102414.22;4999247;28;20088;-72
2021/12/13 07:40:48;;;;;;;10.85;4.60;;;;;;;8.27;57.38;102420.22;4995579;28;20060;-72
2021/12/13 07:43:16;;;;;;;13.80;5.72;;;;;;;7.82;58.48;102419.56;4997596;28;20065;-72
2021/12/13 07:45:54;;;;;;;12.50;5.03;;;;;;;8.20;57.38;102421.13;4970005;28;20065;-72
2021/12/13 07:48:30;;;;;;;11.07;5.05;;;;;;;7.87;58.32;102417.81;4981335;28;20137;-73
2021/12/13 07:51:05;;;;;;;10.00;4.75;;;;;;;7.96;57.90;102433.41;4964557;28;20041;-72
2021/12/13 07:53:59;;;;;;;12.07;5.75;;;;;;;7.84;58.18;102436.91;4996258;28;20034;-72
2021/12/13 07:56:37;;;;;;;15.82;4.78;;;;;;;8.05;57.50;102443.78;4993163;28;20036;-72
2021/12/13 07:59:11;;;;;;;10.02;5.13;;;;;;;8.15;57.38;102437.66;4999480;28;20045;-72
2021/12/13 08:01:51;;;;;;;9.60;5.50;;;;;;;8.23;57.17;102441.97;4978519;28;20030;-73
2021/12/13 08:04:22;;;;;;;14.27;5.63;;;;;;;7.84;58.07;102443.88;4986176;28;20034;-72
2021/12/13 08:06:52;;;;;;;8.80;4.78;;;;;;;7.92;57.83;102447.31;4984528;28;20099;-72
2021/12/13 08:09:22;;;;;;;8.15;4.32;;;;;;;7.80;57.81;102442.13;4998230;28;20061;-73
2021/12/13 08:11:58;;;;;;;11.15;4.68;;;;;;;7.91;57.94;102445.56;4977161;28;20045;-72
2021/12/13 08:14:25;;;;;;;13.27;5.60;;;;;;;8.19;57.30;102448.06;5001445;28;20048;-74
2021/12/13 08:16:51;;;;;;;8.82;4.30;;;;;;;8.08;57.23;102445.50;4983199;28;20042;-72
2021/12/13 08:19:22;;;;;;;8.73;4.47;;;;;;;8.13;56.84;102449.81;4996881;28;20092;-72
2021/12/13 08:21:54;;;;;;;9.48;5.35;;;;;;;7.80;58.03;102452.53;4986744;28;20735;-73
2021/12/13 08:24:24;;;;;;;9.57;5.35;;;;;;;7.84;57.77;102454.28;4979526;28;20120;-72
2021/12/13 08:26:58;;;;;;;8.80;5.28;;;;;;;8.05;57.13;102443.78;4964031;28;20038;-73
2021/12/13 08:29:31;;;;;;;15.93;8.23;;;;;;;7.97;57.25;102440.34;4968225;28;20038;-73
2021/12/13 08:32:00;;;;;;;12.25;6.60;;;;;;;8.07;56.82;102444.66;4955439;28;20059;-73
2021/12/13 08:34:33;;;;;;;14.48;6.13;;;;;;;7.96;57.47;102449.03;4969192;28;20060;-72
2021/12/13 08:37:09;;;;;;;10.85;5.15;;;;;;;8.30;56.07;102449.75;4969477;28;20053;-72
2021/12/13 08:39:36;;;;;;;9.55;5.65;;;;;;;7.35;58.88;102451.75;4995450;28;20030;-72
2021/12/13 08:42:16;;;;;;;8.80;4.60;;;;;;;7.99;57.15;102445.56;4982912;28;20224;-71
2021/12/13 08:45:07;;;;;;;9.88;4.45;;;;;;;8.10;56.71;102451.59;4960411;28;20499;-71
2021/12/13 08:47:39;;;;;;;8.50;5.63;;;;;;;7.94;57.55;102453.38;4980103;28;20137;-71
2021/12/13 08:50:17;;;;;;;10.88;5.15;;;;;;;8.15;56.82;102463.69;4975718;28;20022;-72
2021/12/13 08:52:45;;;;;;;13.55;6.20;;;;;;;7.58;57.96;102463.03;4987795;28;20042;-71
2021/12/13 08:55:10;;;;;;;11.82;5.60;;;;;;;8.01;56.90;102457.69;4991935;28;20030;-71
2021/12/13 08:57:45;;;;;;;13.43;6.07;;;;;;;7.92;57.17;102457.72;4974489;28;20073;-71
2021/12/13 09:00:13;;;;;;;11.80;5.32;;;;;;;8.10;56.79;102449.84;4982791;28;20435;-71
2021/12/13 09:02:47;;;;;;;10.15;5.70;;;;;;;7.60;57.93;102450.88;4993680;28;20050;-72
2021/12/13 09:05:20;;;;;;;11.73;5.82;;;;;;;8.27;56.05;102456.69;4994559;28;20034;-71
2021/12/13 09:08:09;;;;;;;10.95;5.15;;;;;;;7.99;57.07;102454.22;4995510;28;20121;-72
2021/12/13 09:10:52;;;;;;;10.65;5.22;;;;;;;7.98;57.20;102457.72;4986648;28;20555;-72
2021/12/13 09:13:35;;;;;;;14.43;5.68;;;;;;;8.43;55.21;102458.38;4994088;28;20534;-71
2021/12/13 09:16:01;;;;;;;6.88;4.60;;;;;;;8.03;56.60;102471.56;4981134;28;20076;-71
2021/12/13 09:18:27;;;;;;;25.85;6.28;;;;;;;8.03;56.46;102461.16;4982209;28;20042;-72
2021/12/13 09:20:55;;;;;;;10.65;5.80;;;;;;;8.16;56.19;102467.19;4973425;28;20076;-71
2021/12/13 09:23:29;;;;;;;11.18;7.05;;;;;;;8.02;56.64;102475.03;4996401;28;20136;-71
2021/12/13 09:26:11;;;;;;;14.65;5.88;;;;;;;8.31;55.43;102479.25;4991920;28;20033;-71
2021/12/13 09:28:52;;;;;;;9.65;5.72;;;;;;;8.20;55.92;102475.84;4978565;28;20058;-71
2021/12/13 09:31:23;;;;;;;18.13;5.47;;;;;;;8.04;56.40;102478.50;4985502;28;20068;-72
2021/12/13 09:33:54;;;;;;;10.10;5.75;;;;;;;7.83;57.16;102478.59;4987147;28;20070;-71
2021/12/13 09:36:26;;;;;;;9.25;5.00;;;;;;;8.10;56.17;102478.47;4984722;28;20038;-71
2021/12/13 09:39:03;;;;;;;11.23;5.40;;;;;;;7.83;57.17;102478.59;4998665;28;20458;-72
2021/12/13 09:41:37;;;;;;;11.38;6.32;;;;;;;8.00;56.74;102486.31;4981882;28;20037;-71
2021/12/13 09:44:16;;;;;;;8.93;4.82;;;;;;;8.57;55.25;102489.53;4977474;28;20050;-71
2021/12/13 09:46:42;;;;;;;9.80;4.97;;;;;;;8.02;56.56;102489.78;4976431;28;20493;-71
2021/12/13 09:49:10;;;;;;;8.75;5.10;;;;;;;8.30;55.84;102486.22;4995934;28;20041;-71
2021/12/13 09:51:51;;;;;;;9.45;6.07;;;;;;;8.45;55.40;102490.50;4985643;28;20479;-71
2021/12/13 09:54:22;;;;;;;10.95;6.32;;;;;;;8.47;55.16;102488.75;5000151;28;20075;-71
2021/12/13 09:56:50;;;;;;;11.35;6.78;;;;;;;8.42;55.19;102500.91;4984449;28;20030;-71
2021/12/13 09:59:36;;;;;;;16.80;7.18;;;;;;;8.31;55.82;102493.13;4984492;28;20037;-71
2021/12/13 10:02:08;;;;;;;11.93;6.88;;;;;;;8.30;55.86;102499.22;4990845;28;20046;-71
2021/12/13 10:04:37;;;;;;;11.98;6.07;;;;;;;8.23;55.98;102500.13;4982222;28;20404;-71
2021/12/13 10:07:08;;;;;;;15.95;8.55;;;;;;;8.38;55.18;102499.19;4979427;28;20046;-71
2021/12/13 10:09:44;;;;;;;19.40;8.73;;;;;;;7.88;56.71;102502.88;4961890;28;20438;-71
2021/12/13 10:12:28;;;;;;;14.98;7.53;;;;;;;8.46;55.15;102492.22;4985744;28;20056;-71
2021/12/13 10:15:01;;;;;;;11.60;7.60;;;;;;;8.41;55.16;102498.34;4997972;28;20117;-72
2021/12/13 10:17:40;;;;;;;14.20;7.75;;;;;;;7.96;56.50;102501.13;4992095;28;20065;-72
2021/12/13 10:20:22;;;;;;;17.20;8.90;;;;;;;8.52;55.32;102505.22;4973123;28;20089;-71
2021/12/13 10:22:49;;;;;;;20.00;10.15;;;;;;;8.36;55.77;102506.16;4978096;28;20380;-70
2021/12/13 10:25:17;;;;;;;17.85;9.35;;;;;;;7.80;57.01;102510.69;4993622;28;20381;-71
2021/12/13 10:27:45;;;;;;;15.27;9.55;;;;;;;8.44;55.47;102496.56;4995425;28;20099;-70
2021/12/13 10:30:15;;;;;;;18.40;8.25;;;;;;;8.62;54.93;102489.53;4970553;28;20042;-70
2021/12/13 10:32:42;;;;;;;24.85;9.85;;;;;;;8.35;55.94;102497.47;4969016;28;20052;-70
2021/12/13 10:35:13;;;;;;;19.00;10.10;;;;;;;8.67;55.04;102506.00;4977518;28;20077;-70
2021/12/13 10:37:42;;;;;;;19.40;8.93;;;;;;;8.66;54.81;102496.44;4986093;28;20048;-70
2021/12/13 10:40:25;;;;;;;19.88;10.55;;;;;;;8.01;56.28;102509.78;4964280;28;20042;-70
2021/12/13 10:43:03;;;;;;;20.98;10.88;;;;;;;8.42;55.38;102498.31;4987004;28;20133;-71
2021/12/13 10:45:34;;;;;;;18.90;9.32;;;;;;;8.03;56.62;102502.81;4996738;28;20531;-71
2021/12/13 10:48:06;;;;;;;13.85;8.80;;;;;;;7.77;57.35;102502.88;4994871;28;20034;-70
2021/12/13 10:50:35;;;;;;;;;;;;;;;7.86;57.48;102512.41;4997776;28;20475;-70
2021/12/13 10:53:04;;;;;;;19.10;9.40;;;;;;;8.70;55.12;102501.63;4977415;28;19929;-72
2021/12/13 10:55:34;;;;;;;20.27;10.40;;;;;;;8.51;55.55;102500.00;4996316;28;20030;-71
2021/12/13 10:58:03;;;;;;;25.17;10.57;;;;;;;8.57;55.36;102506.03;4994093;28;20049;-71
2021/12/13 11:00:37;;;;;;;16.30;9.27;;;;;;;8.95;53.86;102502.34;4993637;28;20125;-70
2021/12/13 11:03:13;;;;;;;20.02;10.80;;;;;;;8.51;55.33;102495.66;4977036;28;20057;-71
2021/12/13 11:05:41;;;;;;;17.75;10.45;;;;;;;7.96;56.57;102501.13;4983158;28;20566;-70
2021/12/13 11:08:09;;;;;;;18.55;9.25;;;;;;;8.43;55.29;102497.44;4984401;28;20042;-71
2021/12/13 11:10:48;;;;;;;19.77;10.65;;;;;;;7.92;56.94;102495.03;4981829;28;20070;-71
2021/12/13 11:13:15;;;;;;;19.55;9.95;;;;;;;7.94;56.77;102493.28;4968413;28;20439;-70
2021/12/13 11:15:44;;;;;;;20.52;10.80;;;;;;;8.67;55.09;102490.34;4996526;28;20042;-71
2021/12/13 11:18:13;;;;;;;19.98;11.30;;;;;;;8.57;54.89;102485.19;4985855;28;20030;-71
2021/12/13 11:20:44;;;;;;;22.95;12.15;;;;;;;8.17;55.76;102489.75;4978430;28;20034;-71
2021/12/13 11:23:11;;;;;;;21.15;11.00;;;;;;;8.69;54.54;102494.66;4993826;28;20038;-71
2021/12/13 11:26:00;;;;;;;19.02;10.70;;;;;;;8.44;55.05;102493.94;5019719;22;20038;-71
2021/12/13 11:28:29;;;;;;;23.38;10.80;;;;;;;8.28;55.23;102492.31;5013664;28;20045;-71
2021/12/13 11:30:56;;;;;;;19.20;9.50;;;;;;;8.56;55.04;102491.28;4987522;28;20434;-71
2021/12/13 11:33:37;;;;;;;21.08;10.40;;;;;;;8.60;54.72;102491.25;5012297;28;20180;-71
2021/12/13 11:36:21;;;;;;;20.90;10.68;;;;;;;8.73;54.31;102490.34;4979658;28;20120;-71
2021/12/13 11:39:02;;;;;;;18.67;11.38;;;;;;;8.61;54.75;102480.84;4971574;28;20546;-72
2021/12/13 11:41:52;;;;;;;16.90;10.23;;;;;;;8.71;54.49;102484.28;4997782;28;20119;-72
2021/12/13 11:44:54;;;;;;;20.63;10.00;;;;;;;7.72;57.15;102479.47;4994627;28;20150;-71
2021/12/13 11:47:29;;;;;;;16.35;10.07;;;;;;;8.36;55.31;102482.72;4979781;28;20037;-72
2021/12/13 11:50:27;;;;;;;25.23;10.98;;;;;;;7.91;56.33;102488.13;4995368;28;20034;-72
2021/12/13 11:53:19;;;;;;;23.35;10.82;;;;;;;8.32;55.06;102476.66;4993984;28;20054;-71
2021/12/13 11:56:08;;;;;;;21.50;12.25;;;;;;;8.67;54.58;102485.13;4994665;28;20038;-72
2021/12/13 11:58:59;;;;;;;17.85;10.07;;;;;;;8.08;56.07;102480.22;4980527;28;20708;-72
2021/12/13 12:01:52;;;;;;;20.55;11.20;;;;;;;8.22;55.82;102476.69;4986123;28;20129;-72
2021/12/13 12:05:05;;;;;;;21.77;10.85;;;;;;;8.51;55.19;102485.22;4994253;28;21204;-72
2021/12/13 12:07:42;;;;;;;17.98;9.90;;;;;;;8.15;55.54;102484.53;4971271;28;20107;-72